createdAt,value
2018-04-25T00:00:18.129Z,49.00
2018-04-25T00:01:22.691Z,34.50
2018-04-25T00:02:28.068Z,42.00
2018-04-25T00:03:32.242Z,27.50
2018-04-25T00:04:37.284Z,42.00
2018-04-25T00:05:41.365Z,39.00
2018-04-25T00:06:45.581Z,41.50
2018-04-25T00:07:50.171Z,37.00
2018-04-25T00:08:54.272Z,39.50
2018-04-25T00:09:58.394Z,47.00
2018-04-25T00:11:03.112Z,39.00
2018-04-25T00:12:07.256Z,41.00
2018-04-25T00:13:11.346Z,40.00
2018-04-25T00:14:16.330Z,30.00
2018-04-25T00:15:20.970Z,49.50
2018-04-25T00:16:25.132Z,37.50
2018-04-25T00:17:29.774Z,39.00
2018-04-25T00:18:33.868Z,36.50
2018-04-25T00:19:38.516Z,38.00
2018-04-25T00:20:42.948Z,43.00
2018-04-25T00:21:47.134Z,37.00
2018-04-25T00:22:51.198Z,43.50
2018-04-25T00:23:55.350Z,35.00
2018-04-25T00:24:59.456Z,35.00
2018-04-25T00:26:03.532Z,19.00
2018-04-25T00:27:07.601Z,51.00
2018-04-25T00:28:11.772Z,43.00
2018-04-25T00:29:16.200Z,29.00
2018-04-25T00:30:20.722Z,56.50
2018-04-25T00:31:24.806Z,46.00
2018-04-25T00:32:29.962Z,39.00
2018-04-25T00:33:34.278Z,37.00
2018-04-25T00:34:38.948Z,23.00
2018-04-25T00:35:43.034Z,39.00
2018-04-25T00:36:47.270Z,47.50
2018-04-25T00:37:51.397Z,44.00
2018-04-25T00:38:55.778Z,51.00
2018-04-25T00:39:59.855Z,36.50
2018-04-25T00:41:03.963Z,50.50
2018-04-25T00:42:08.086Z,41.50
2018-04-25T00:43:12.590Z,45.50
2018-04-25T00:44:18.011Z,41.50
2018-04-25T00:45:22.423Z,53.50
2018-04-25T00:46:26.509Z,39.50
2018-04-25T00:47:30.678Z,46.00
2018-04-25T00:48:34.752Z,42.50
2018-04-25T00:49:39.564Z,44.50
2018-04-25T00:50:43.955Z,39.50
2018-04-25T00:51:48.030Z,50.50
2018-04-25T00:52:52.128Z,30.00
2018-04-25T00:53:56.278Z,47.00
2018-04-25T00:55:00.396Z,28.50
2018-04-25T00:56:04.533Z,48.50
2018-04-25T00:57:08.692Z,38.50
2018-04-25T00:58:12.958Z,36.50
2018-04-25T00:59:17.362Z,47.00
2018-04-25T01:00:21.748Z,34.00
2018-04-25T01:01:25.842Z,45.50
2018-04-25T01:02:30.372Z,45.50
2018-04-25T01:03:35.153Z,54.00
2018-04-25T01:04:39.461Z,40.50
2018-04-25T01:05:43.827Z,33.00
2018-04-25T01:06:47.955Z,44.50
2018-04-25T01:07:52.031Z,23.50
2018-04-25T01:08:56.513Z,28.00
2018-04-25T01:10:00.656Z,36.50
2018-04-25T01:11:04.739Z,30.00
2018-04-25T01:12:08.857Z,41.50
2018-04-25T01:13:12.977Z,36.00
2018-04-25T01:14:17.473Z,65.00
2018-04-25T01:15:22.367Z,71.50
2018-04-25T01:16:27.187Z,58.50
2018-04-25T01:17:31.439Z,45.00
2018-04-25T01:18:35.660Z,18.00
2018-04-25T01:19:39.867Z,62.00
2018-04-25T01:20:44.036Z,44.50
2018-04-25T01:21:48.514Z,46.50
2018-04-25T01:22:52.791Z,33.50
2018-04-25T01:23:57.335Z,36.00
2018-04-25T01:25:01.513Z,46.00
2018-04-25T01:26:06.824Z,48.00
2018-04-25T01:27:11.045Z,41.00
2018-04-25T01:28:15.768Z,43.00
2018-04-25T01:29:20.247Z,55.00
2018-04-25T01:30:26.090Z,63.00
2018-04-25T01:31:30.597Z,40.00
2018-04-25T01:32:35.171Z,65.00
2018-04-25T01:33:40.588Z,51.00
2018-04-25T01:34:45.112Z,55.50
2018-04-25T01:35:49.282Z,21.50
2018-04-25T01:36:53.627Z,47.00
2018-04-25T01:37:58.947Z,58.00
2018-04-25T01:39:03.065Z,53.50
2018-04-25T01:40:08.189Z,52.00
2018-04-25T01:41:12.329Z,30.00
2018-04-25T01:42:16.893Z,45.50
2018-04-25T01:43:21.287Z,36.00
2018-04-25T01:44:25.476Z,42.00
2018-04-25T01:45:31.457Z,63.50
2018-04-25T01:46:36.735Z,51.00
2018-04-25T01:47:41.617Z,57.00
2018-04-25T01:48:54.659Z,63.00
2018-04-25T01:50:00.787Z,53.00
2018-04-25T01:51:03.966Z,41.50
2018-04-25T01:52:19.699Z,49.00
2018-04-25T01:53:34.747Z,49.50
2018-04-25T01:54:49.617Z,40.00
2018-04-25T01:56:04.713Z,56.00
2018-04-25T01:57:19.989Z,29.50
2018-04-25T01:58:34.982Z,45.00
2018-04-25T01:59:50.025Z,38.00
2018-04-25T02:01:04.999Z,53.50
2018-04-25T02:02:08.079Z,60.00
2018-04-25T02:03:10.965Z,31.00
2018-04-25T02:04:15.121Z,26.50
2018-04-25T02:05:19.203Z,37.50
2018-04-25T02:06:23.346Z,49.00
2018-04-25T02:07:27.705Z,54.00
2018-04-25T02:08:31.863Z,49.50
2018-04-25T02:09:36.933Z,42.50
2018-04-25T02:10:41.387Z,35.00
2018-04-25T02:11:45.549Z,39.00
2018-04-25T02:12:49.616Z,41.50
2018-04-25T02:13:53.777Z,39.50
2018-04-25T02:14:58.243Z,64.00
2018-04-25T02:16:02.538Z,51.50
2018-04-25T02:17:06.753Z,45.00
2018-04-25T02:18:11.282Z,59.00
2018-04-25T02:19:15.496Z,44.00
2018-04-25T02:20:19.769Z,47.50
2018-04-25T02:21:24.502Z,60.00
2018-04-25T02:22:28.920Z,61.50
2018-04-25T02:23:33.089Z,52.00
2018-04-25T02:24:37.255Z,46.50
2018-04-25T02:25:41.347Z,47.50
2018-04-25T02:26:46.404Z,41.50
2018-04-25T02:27:50.547Z,36.00
2018-04-25T02:28:55.434Z,50.00
2018-04-25T02:29:59.552Z,54.50
2018-04-25T02:31:04.121Z,43.50
2018-04-25T02:32:08.504Z,30.50
2018-04-25T02:33:12.603Z,52.50
2018-04-25T02:34:17.037Z,54.50
2018-04-25T02:35:21.551Z,63.00
2018-04-25T02:36:25.973Z,45.50
2018-04-25T02:37:30.239Z,43.50
2018-04-25T02:38:34.619Z,54.50
2018-04-25T02:39:40.043Z,44.00
2018-04-25T02:40:44.218Z,46.00
2018-04-25T02:41:49.110Z,43.50
2018-04-25T02:42:53.962Z,50.00
2018-04-25T02:43:58.110Z,47.50
2018-04-25T02:45:04.125Z,44.00
2018-04-25T02:46:09.035Z,46.50
2018-04-25T02:47:13.103Z,40.00
2018-04-25T02:48:17.175Z,42.50
2018-04-25T02:49:21.339Z,33.50
2018-04-25T02:50:25.393Z,52.50
2018-04-25T02:51:29.439Z,41.50
2018-04-25T02:52:34.050Z,47.50
2018-04-25T02:53:38.117Z,38.00
2018-04-25T02:54:42.253Z,49.00
2018-04-25T02:55:46.991Z,56.50
2018-04-25T02:56:51.352Z,23.50
2018-04-25T02:57:56.930Z,55.50
2018-04-25T02:59:01.488Z,44.50
2018-04-25T03:00:07.382Z,35.00
2018-04-25T03:01:11.760Z,58.00
2018-04-25T03:02:15.913Z,40.00
2018-04-25T03:03:20.105Z,36.00
2018-04-25T03:04:24.696Z,36.50
2018-04-25T03:05:28.837Z,45.00
2018-04-25T03:06:33.417Z,48.00
2018-04-25T03:07:37.820Z,36.00
2018-04-25T03:08:43.742Z,60.50
2018-04-25T03:09:48.709Z,62.00
2018-04-25T03:10:53.787Z,45.00
2018-04-25T03:11:57.952Z,60.50
2018-04-25T03:13:02.497Z,30.00
2018-04-25T03:14:06.760Z,48.00
2018-04-25T03:15:13.540Z,58.00
2018-04-25T03:16:18.416Z,56.50
2018-04-25T03:17:22.912Z,55.00
2018-04-25T03:18:27.297Z,49.50
2018-04-25T03:19:32.028Z,28.50
2018-04-25T03:20:36.606Z,32.50
2018-04-25T03:21:41.212Z,44.50
2018-04-25T03:22:46.450Z,49.50
2018-04-25T03:23:50.633Z,57.00
2018-04-25T03:24:55.091Z,38.00
2018-04-25T03:25:59.558Z,39.50
2018-04-25T03:27:03.649Z,35.50
2018-04-25T03:28:08.109Z,34.50
2018-04-25T03:29:12.187Z,41.00
2018-04-25T03:30:16.633Z,39.50
2018-04-25T03:31:20.755Z,63.00
2018-04-25T03:32:25.188Z,41.50
2018-04-25T03:33:29.252Z,36.50
2018-04-25T03:34:34.027Z,15.50
2018-04-25T03:35:38.117Z,45.50
2018-04-25T03:36:43.780Z,32.00
2018-04-25T03:37:48.264Z,56.50
2018-04-25T03:38:52.690Z,61.50
2018-04-25T03:39:57.519Z,40.50
2018-04-25T03:41:01.996Z,50.50
2018-04-25T03:42:06.864Z,65.50
2018-04-25T03:43:10.964Z,34.00
2018-04-25T03:44:15.045Z,38.00
2018-04-25T03:45:19.552Z,37.50
2018-04-25T03:46:24.018Z,34.50
2018-04-25T03:47:28.158Z,46.50
2018-04-25T03:48:32.331Z,31.00
2018-04-25T03:49:36.526Z,45.50
2018-04-25T03:50:40.598Z,38.00
2018-04-25T03:51:44.711Z,33.50
2018-04-25T03:52:48.888Z,48.00
2018-04-25T03:53:53.012Z,43.50
2018-04-25T03:54:57.076Z,58.50
2018-04-25T03:56:01.269Z,37.50
2018-04-25T03:57:05.328Z,47.00
2018-04-25T03:58:09.765Z,50.00
2018-04-25T03:59:13.979Z,45.50
2018-04-25T04:00:18.219Z,67.00
2018-04-25T04:01:22.364Z,50.00
2018-04-25T04:02:26.444Z,35.00
2018-04-25T04:03:30.543Z,35.00
2018-04-25T04:04:34.864Z,42.00
2018-04-25T04:05:38.983Z,33.00
2018-04-25T04:06:43.053Z,50.50
2018-04-25T04:07:47.130Z,28.00
2018-04-25T04:08:51.293Z,29.00
2018-04-25T04:09:55.398Z,51.00
2018-04-25T04:10:59.845Z,32.00
2018-04-25T04:12:03.931Z,19.00
2018-04-25T04:13:08.055Z,44.00
2018-04-25T04:14:12.137Z,43.50
2018-04-25T04:15:17.111Z,36.00
2018-04-25T04:16:21.511Z,46.00
2018-04-25T04:17:25.896Z,44.50
2018-04-25T04:18:29.996Z,25.50
2018-04-25T04:19:34.327Z,40.00
2018-04-25T04:20:38.649Z,35.50
2018-04-25T04:21:42.949Z,52.00
2018-04-25T04:22:47.127Z,42.00
2018-04-25T04:23:51.627Z,28.00
2018-04-25T04:24:56.917Z,42.50
2018-04-25T04:26:01.082Z,20.50
2018-04-25T04:27:05.195Z,41.00
2018-04-25T04:28:09.645Z,40.50
2018-04-25T04:29:14.619Z,29.50
2018-04-25T04:30:18.707Z,33.00
2018-04-25T04:31:23.319Z,20.00
2018-04-25T04:32:27.669Z,38.50
2018-04-25T04:33:32.199Z,26.00
2018-04-25T04:34:36.487Z,23.50
2018-04-25T04:35:40.977Z,37.00
2018-04-25T04:36:45.104Z,29.50
2018-04-25T04:37:49.247Z,23.00
2018-04-25T04:38:53.367Z,30.00
2018-04-25T04:39:57.517Z,24.50
2018-04-25T04:41:01.645Z,39.50
2018-04-25T04:42:06.013Z,22.50
2018-04-25T04:43:10.090Z,26.00
2018-04-25T04:44:14.165Z,22.50
2018-04-25T04:45:18.323Z,30.50
2018-04-25T04:46:22.379Z,29.00
2018-04-25T04:47:26.458Z,41.50
2018-04-25T04:48:30.860Z,24.00
2018-04-25T04:49:35.344Z,30.00
2018-04-25T04:50:39.451Z,24.50
2018-04-25T04:51:43.645Z,24.00
2018-04-25T04:52:48.711Z,24.50
2018-04-25T04:53:52.809Z,31.00
2018-04-25T04:54:56.885Z,36.00
2018-04-25T04:56:00.975Z,38.50
2018-04-25T04:57:05.243Z,36.00
2018-04-25T04:58:09.315Z,33.50
2018-04-25T04:59:13.403Z,35.50
2018-04-25T05:00:17.769Z,52.50
2018-04-25T05:01:21.870Z,38.50
2018-04-25T05:02:25.982Z,21.50
2018-04-25T05:03:30.069Z,13.50
2018-04-25T05:04:34.743Z,40.50
2018-04-25T05:05:38.831Z,34.50
2018-04-25T05:06:42.904Z,29.00
2018-04-25T05:07:47.771Z,49.00
2018-04-25T05:08:51.879Z,32.50
2018-04-25T05:09:56.857Z,29.00
2018-04-25T05:11:01.298Z,18.00
2018-04-25T05:12:05.419Z,28.00
2018-04-25T05:13:09.566Z,22.00
2018-04-25T05:14:13.612Z,28.00
2018-04-25T05:15:17.817Z,35.50
2018-04-25T05:16:21.912Z,35.50
2018-04-25T05:17:26.081Z,33.00
2018-04-25T05:18:30.255Z,23.00
2018-04-25T05:19:34.633Z,30.50
2018-04-25T05:20:38.783Z,26.00
2018-04-25T05:21:42.872Z,26.50
2018-04-25T05:22:47.673Z,32.50
2018-04-25T05:23:51.758Z,27.50
2018-04-25T05:24:55.846Z,28.00
2018-04-25T05:25:59.938Z,30.00
2018-04-25T05:27:04.046Z,24.00
2018-04-25T05:28:08.531Z,32.00
2018-04-25T05:29:12.631Z,21.00
2018-04-25T05:30:16.751Z,19.50
2018-04-25T05:31:20.829Z,16.50
2018-04-25T05:32:24.995Z,37.00
2018-04-25T05:33:29.076Z,23.00
2018-04-25T05:34:33.308Z,25.00
2018-04-25T05:35:37.689Z,20.00
2018-04-25T05:36:41.768Z,20.00
2018-04-25T05:37:46.514Z,21.00
2018-04-25T05:38:50.611Z,31.00
2018-04-25T05:39:54.740Z,42.50
2018-04-25T05:40:59.607Z,28.00
2018-04-25T05:42:03.799Z,26.50
2018-04-25T05:43:08.023Z,20.50
2018-04-25T05:44:12.154Z,44.50
2018-04-25T05:45:16.792Z,25.50
2018-04-25T05:46:20.894Z,28.00
2018-04-25T05:47:25.036Z,31.50
2018-04-25T05:48:29.131Z,33.50
2018-04-25T05:49:33.435Z,22.50
2018-04-25T05:50:37.572Z,25.00
2018-04-25T05:51:42.152Z,28.00
2018-04-25T05:52:47.075Z,30.00
2018-04-25T05:53:51.193Z,26.50
2018-04-25T05:54:55.370Z,18.50
2018-04-25T05:55:59.469Z,22.00
2018-04-25T05:57:03.586Z,28.50
2018-04-25T05:58:07.971Z,27.00
2018-04-25T05:59:12.122Z,31.00
2018-04-25T06:00:16.874Z,36.00
2018-04-25T06:01:21.042Z,29.00
2018-04-25T06:02:25.155Z,20.50
2018-04-25T06:03:29.292Z,24.00
2018-04-25T06:04:33.895Z,24.50
2018-04-25T06:05:38.126Z,23.50
2018-04-25T06:06:42.290Z,17.50
2018-04-25T06:07:47.201Z,32.00
2018-04-25T06:08:51.290Z,26.00
2018-04-25T06:09:56.282Z,27.00
2018-04-25T06:11:00.782Z,27.00
2018-04-25T06:12:04.875Z,22.50
2018-04-25T06:13:09.017Z,32.50
2018-04-25T06:14:13.225Z,30.50
2018-04-25T06:15:17.818Z,31.00
2018-04-25T06:16:22.690Z,35.50
2018-04-25T06:17:27.178Z,34.50
2018-04-25T06:18:31.309Z,37.50
2018-04-25T06:19:35.685Z,27.50
2018-04-25T06:20:40.059Z,28.50
2018-04-25T06:21:44.186Z,19.50
2018-04-25T06:22:48.661Z,34.50
2018-04-25T06:23:52.855Z,29.50
2018-04-25T06:24:56.907Z,33.00
2018-04-25T06:26:01.139Z,28.00
2018-04-25T06:27:05.223Z,27.50
2018-04-25T06:28:09.455Z,35.00
2018-04-25T06:29:13.871Z,34.00
2018-04-25T06:30:18.155Z,32.50
2018-04-25T06:31:22.284Z,32.50
2018-04-25T06:32:26.477Z,35.50
2018-04-25T06:33:30.621Z,39.00
2018-04-25T06:34:34.715Z,29.50
2018-04-25T06:35:39.078Z,27.50
2018-04-25T06:36:43.334Z,26.50
2018-04-25T06:37:48.256Z,46.00
2018-04-25T06:38:52.548Z,21.00
2018-04-25T06:39:56.643Z,34.00
2018-04-25T06:41:00.722Z,25.00
2018-04-25T06:42:04.861Z,38.00
2018-04-25T06:43:09.036Z,38.50
2018-04-25T06:44:13.188Z,28.50
2018-04-25T06:45:17.309Z,54.00
2018-04-25T06:46:21.430Z,36.00
2018-04-25T06:47:25.846Z,23.00
2018-04-25T06:48:30.007Z,36.50
2018-04-25T06:49:34.119Z,35.00
2018-04-25T06:50:38.540Z,30.50
2018-04-25T06:51:42.792Z,27.50
2018-04-25T06:52:46.902Z,26.50
2018-04-25T06:53:51.635Z,26.00
2018-04-25T06:54:55.736Z,30.00
2018-04-25T06:56:00.509Z,37.00
2018-04-25T06:57:04.619Z,30.00
2018-04-25T06:58:08.712Z,32.50
2018-04-25T06:59:13.135Z,35.50
2018-04-25T07:00:17.345Z,50.50
2018-04-25T07:01:21.742Z,27.00
2018-04-25T07:02:25.816Z,32.00
2018-04-25T07:03:30.017Z,39.00
2018-04-25T07:04:34.195Z,40.50
2018-04-25T07:05:38.539Z,33.00
2018-04-25T07:06:42.816Z,30.00
2018-04-25T07:07:46.897Z,28.50
2018-04-25T07:08:51.740Z,23.00
2018-04-25T07:09:56.716Z,28.00
2018-04-25T07:11:01.742Z,24.00
2018-04-25T07:12:05.994Z,27.50
2018-04-25T07:13:10.094Z,19.00
2018-04-25T07:14:14.281Z,16.50
2018-04-25T07:15:18.532Z,33.00
2018-04-25T07:16:22.710Z,24.50
2018-04-25T07:17:27.269Z,19.50
2018-04-25T07:18:31.709Z,28.00
2018-04-25T07:19:35.873Z,19.00
2018-04-25T07:20:40.264Z,22.00
2018-04-25T07:21:44.454Z,24.50
2018-04-25T07:22:48.631Z,19.00
2018-04-25T07:23:53.398Z,20.50
2018-04-25T07:24:57.536Z,26.50
2018-04-25T07:26:02.459Z,25.50
2018-04-25T07:27:06.609Z,18.50
2018-04-25T07:28:10.746Z,20.00
2018-04-25T07:29:14.846Z,18.00
2018-04-25T07:30:19.199Z,20.00
2018-04-25T07:31:23.366Z,11.00
2018-04-25T07:32:27.443Z,23.00
2018-04-25T07:33:31.563Z,22.00
2018-04-25T07:34:36.068Z,17.50
2018-04-25T07:35:40.383Z,18.50
2018-04-25T07:36:44.519Z,20.00
2018-04-25T07:37:48.747Z,25.50
2018-04-25T07:38:52.970Z,28.50
2018-04-25T07:39:57.085Z,26.50
2018-04-25T07:41:01.224Z,30.00
2018-04-25T07:42:05.309Z,27.50
2018-04-25T07:43:09.513Z,22.00
2018-04-25T07:44:13.606Z,22.50
2018-04-25T07:45:18.025Z,27.00
2018-04-25T07:46:22.115Z,29.50
2018-04-25T07:47:26.286Z,13.50
2018-04-25T07:48:30.539Z,17.50
2018-04-25T07:49:34.827Z,27.50
2018-04-25T07:50:39.127Z,24.00
2018-04-25T07:51:43.244Z,16.00
2018-04-25T07:52:47.414Z,13.50
2018-04-25T07:53:51.514Z,14.00
2018-04-25T07:54:55.635Z,14.50
2018-04-25T07:55:59.818Z,11.00
2018-04-25T07:57:04.590Z,13.50
2018-04-25T07:58:09.026Z,9.50
2018-04-25T07:59:13.235Z,13.00
2018-04-25T08:00:17.619Z,20.50
2018-04-25T08:01:21.729Z,9.00
2018-04-25T08:02:25.839Z,15.00
2018-04-25T08:03:29.954Z,18.00
2018-04-25T08:04:34.439Z,13.50
2018-04-25T08:05:38.697Z,17.00
2018-04-25T08:06:42.923Z,15.50
2018-04-25T08:07:47.035Z,9.00
2018-04-25T08:08:51.121Z,16.00
2018-04-25T08:09:55.221Z,9.00
2018-04-25T08:10:59.643Z,27.00
2018-04-25T08:12:04.210Z,9.00
2018-04-25T08:15:22.561Z,14.00
2018-04-25T08:16:37.915Z,22.00
2018-04-25T08:19:56.738Z,13.00
2018-04-25T08:21:09.737Z,11.00
2018-04-25T08:22:14.196Z,17.00
2018-04-25T08:23:18.286Z,21.00
2018-04-25T08:24:22.493Z,17.00
2018-04-25T08:25:26.599Z,16.00
2018-04-25T08:26:30.821Z,10.00
2018-04-25T08:27:34.963Z,12.00
2018-04-25T08:28:39.876Z,6.50
2018-04-25T08:29:44.140Z,10.00
2018-04-25T08:30:48.477Z,12.00
2018-04-25T08:31:53.339Z,14.50
2018-04-25T08:32:57.441Z,14.00
2018-04-25T08:34:01.513Z,13.00
2018-04-25T08:35:05.951Z,10.50
2018-04-25T08:36:10.122Z,11.00
2018-04-25T08:37:14.194Z,11.50
2018-04-25T08:38:19.259Z,13.50
2018-04-25T08:39:23.438Z,11.00
2018-04-25T08:40:27.514Z,21.50
2018-04-25T08:41:31.983Z,16.00
2018-04-25T08:42:36.078Z,18.00
2018-04-25T08:43:40.246Z,13.50
2018-04-25T08:44:44.410Z,17.00
2018-04-25T08:45:48.829Z,20.50
2018-04-25T08:46:53.327Z,16.00
2018-04-25T08:47:57.432Z,14.00
2018-04-25T08:49:01.626Z,12.50
2018-04-25T08:50:06.695Z,18.50
2018-04-25T08:51:10.819Z,15.50
2018-04-25T08:52:15.024Z,12.50
2018-04-25T08:53:19.841Z,16.00
2018-04-25T08:54:23.970Z,12.50
2018-04-25T08:55:28.143Z,12.00
2018-04-25T08:56:32.235Z,14.50
2018-04-25T08:57:36.298Z,9.50
2018-04-25T08:58:40.711Z,13.00
2018-04-25T08:59:44.882Z,10.00
2018-04-25T09:00:49.639Z,14.00
2018-04-25T09:01:53.932Z,9.50
2018-04-25T09:02:58.033Z,10.00
2018-04-25T09:04:02.112Z,7.50
2018-04-25T09:05:06.811Z,10.00
2018-04-25T09:06:10.969Z,9.50
2018-04-25T09:07:15.037Z,10.00
2018-04-25T09:08:19.154Z,10.00
2018-04-25T09:09:23.263Z,12.00
2018-04-25T09:10:27.455Z,12.00
2018-04-25T09:11:32.521Z,12.50
2018-04-25T09:12:36.737Z,12.50
2018-04-25T09:13:40.896Z,13.00
2018-04-25T09:14:45.027Z,11.50
2018-04-25T09:15:49.631Z,12.00
2018-04-25T09:16:53.852Z,15.00
2018-04-25T09:17:57.989Z,15.00
2018-04-25T09:19:02.114Z,16.50
2018-04-25T09:20:06.842Z,12.00
2018-04-25T09:21:11.035Z,10.50
2018-04-25T09:22:15.135Z,14.50
2018-04-25T09:23:19.354Z,21.00
2018-04-25T09:24:23.561Z,14.00
2018-04-25T09:25:27.701Z,15.50
2018-04-25T09:26:32.546Z,12.00
2018-04-25T09:27:36.655Z,14.00
2018-04-25T09:28:40.838Z,10.50
2018-04-25T09:29:44.958Z,12.00
2018-04-25T09:30:49.665Z,24.00
2018-04-25T09:31:53.888Z,18.00
2018-04-25T09:32:58.051Z,14.00
2018-04-25T09:34:02.135Z,15.50
2018-04-25T09:35:06.368Z,18.50
2018-04-25T09:36:10.554Z,16.00
2018-04-25T09:37:14.641Z,13.00
2018-04-25T09:38:18.751Z,14.00
2018-04-25T09:39:23.171Z,13.00
2018-04-25T09:40:27.358Z,16.00
2018-04-25T09:41:31.502Z,17.00
2018-04-25T09:42:35.587Z,13.00
2018-04-25T09:43:39.681Z,14.00
2018-04-25T09:44:43.778Z,11.00
2018-04-25T09:45:48.367Z,15.50
2018-04-25T09:46:52.883Z,20.50
2018-04-25T09:47:57.224Z,23.00
2018-04-25T09:49:01.616Z,18.00
2018-04-25T09:50:05.732Z,15.50
2018-04-25T09:51:10.643Z,14.00
2018-04-25T09:52:15.046Z,12.00
2018-04-25T09:53:19.269Z,17.00
2018-04-25T09:54:23.455Z,15.50
2018-04-25T09:55:27.589Z,15.50
2018-04-25T09:56:31.661Z,15.00
2018-04-25T09:57:36.634Z,20.00
2018-04-25T09:58:40.733Z,17.00
2018-04-25T09:59:44.846Z,16.50
2018-04-25T10:00:53.425Z,20.00
2018-04-25T10:02:01.711Z,21.50
2018-04-25T10:03:09.828Z,16.50
2018-04-25T10:04:13.994Z,10.50
2018-04-25T10:05:18.078Z,15.00
2018-04-25T10:06:22.184Z,16.50
2018-04-25T10:07:26.755Z,13.50
2018-04-25T10:08:30.942Z,10.00
2018-04-25T10:09:35.046Z,16.00
2018-04-25T10:10:40.082Z,15.50
2018-04-25T10:11:44.167Z,9.00
2018-04-25T10:12:48.288Z,12.00
2018-04-25T10:13:52.732Z,13.00
2018-04-25T10:14:56.988Z,7.50
2018-04-25T10:16:01.802Z,19.00
2018-04-25T10:17:06.580Z,17.00
2018-04-25T10:18:10.658Z,17.50
2018-04-25T10:19:15.418Z,19.50
2018-04-25T10:20:19.566Z,14.50
2018-04-25T10:21:23.668Z,14.00
2018-04-25T10:22:27.929Z,21.50
2018-04-25T10:23:32.068Z,16.00
2018-04-25T10:24:36.805Z,22.00
2018-04-25T10:25:42.150Z,17.00
2018-04-25T10:26:46.242Z,13.50
2018-04-25T10:27:50.401Z,18.50
2018-04-25T10:28:54.585Z,14.00
2018-04-25T10:29:58.774Z,17.50
2018-04-25T10:31:03.592Z,24.00
2018-04-25T10:32:08.191Z,14.00
2018-04-25T10:33:12.600Z,24.00
2018-04-25T10:34:16.681Z,10.50
2018-04-25T10:35:20.855Z,7.00
2018-04-25T10:36:24.958Z,11.00
2018-04-25T10:37:29.218Z,7.00
2018-04-25T10:38:33.289Z,14.00
2018-04-25T10:39:37.511Z,10.50
2018-04-25T10:40:41.588Z,12.50
2018-04-25T10:41:45.879Z,15.50
2018-04-25T10:42:50.049Z,11.50
2018-04-25T10:43:54.166Z,14.00
2018-04-25T10:44:58.242Z,9.50
2018-04-25T10:46:02.686Z,14.00
2018-04-25T10:47:06.960Z,13.50
2018-04-25T10:48:11.170Z,17.50
2018-04-25T10:49:16.139Z,13.00
2018-04-25T10:50:20.888Z,14.00
2018-04-25T10:51:24.970Z,13.00
2018-04-25T10:52:29.056Z,15.00
2018-04-25T10:53:34.847Z,9.00
2018-04-25T10:54:39.197Z,17.50
2018-04-25T10:55:43.683Z,13.50
2018-04-25T10:56:47.779Z,16.00
2018-04-25T10:57:51.918Z,11.00
2018-04-25T10:58:56.063Z,16.00
2018-04-25T11:00:00.169Z,18.50
2018-04-25T11:01:04.912Z,24.50
2018-04-25T11:02:09.448Z,23.00
2018-04-25T11:03:13.547Z,17.50
2018-04-25T11:04:17.949Z,19.00
2018-04-25T11:05:22.208Z,13.00
2018-04-25T11:06:26.296Z,10.00
2018-04-25T11:07:30.429Z,12.50
2018-04-25T11:08:34.650Z,14.50
2018-04-25T11:09:38.757Z,12.50
2018-04-25T11:10:42.933Z,17.00
2018-04-25T11:11:47.316Z,9.50
2018-04-25T11:12:52.391Z,12.50
2018-04-25T11:13:57.620Z,13.00
2018-04-25T11:15:03.469Z,16.00
2018-04-25T11:16:09.457Z,19.00
2018-04-25T11:17:13.603Z,15.00
2018-04-25T11:18:18.199Z,18.00
2018-04-25T11:19:22.277Z,17.50
2018-04-25T11:20:27.409Z,19.00
2018-04-25T11:21:31.780Z,14.50
2018-04-25T11:22:36.742Z,17.50
2018-04-25T11:23:41.714Z,10.00
2018-04-25T11:24:49.335Z,16.50
2018-04-25T11:25:59.969Z,11.50
2018-04-25T11:27:05.520Z,12.00
2018-04-25T11:28:11.211Z,15.00
2018-04-25T11:29:15.944Z,21.00
2018-04-25T11:30:20.923Z,19.00
2018-04-25T11:31:25.094Z,12.50
2018-04-25T11:32:29.215Z,18.00
2018-04-25T11:33:33.317Z,17.50
2018-04-25T11:34:37.979Z,17.00
2018-04-25T11:35:42.237Z,13.50
2018-04-25T11:36:46.449Z,18.00
2018-04-25T11:37:51.301Z,16.50
2018-04-25T11:38:55.407Z,9.00
2018-04-25T11:39:59.566Z,10.00
2018-04-25T11:41:04.471Z,16.00
2018-04-25T11:42:08.837Z,14.00
2018-04-25T11:43:13.071Z,16.00
2018-04-25T11:44:17.160Z,14.50
2018-04-25T11:45:22.468Z,23.50
2018-04-25T11:46:26.638Z,18.50
2018-04-25T11:47:30.778Z,19.00
2018-04-25T11:48:36.016Z,17.50
2018-04-25T11:49:40.148Z,14.50
2018-04-25T11:50:44.295Z,11.00
2018-04-25T11:51:48.566Z,14.00
2018-04-25T11:52:53.999Z,15.50
2018-04-25T11:53:58.135Z,14.50
2018-04-25T11:55:02.314Z,19.00
2018-04-25T11:56:06.423Z,17.50
2018-04-25T11:57:10.505Z,16.50
2018-04-25T11:58:14.851Z,15.50
2018-04-25T11:59:19.201Z,12.50
2018-04-25T12:00:23.768Z,24.00
2018-04-25T12:01:27.946Z,13.50
2018-04-25T12:02:32.221Z,10.50
2018-04-25T12:03:36.335Z,15.50
2018-04-25T12:04:40.512Z,9.50
2018-04-25T12:05:44.726Z,10.00
2018-04-25T12:06:48.844Z,17.00
2018-04-25T12:07:52.921Z,22.00
2018-04-25T12:08:57.248Z,20.00
2018-04-25T12:10:01.425Z,10.00
2018-04-25T12:11:05.495Z,17.00
2018-04-25T12:12:09.642Z,16.00
2018-04-25T12:13:13.821Z,17.00
2018-04-25T12:14:18.044Z,18.00
2018-04-25T12:15:22.855Z,29.50
2018-04-25T12:16:26.987Z,21.00
2018-04-25T12:17:31.081Z,16.00
2018-04-25T12:18:35.198Z,19.00
2018-04-25T12:19:39.411Z,14.00
2018-04-25T12:20:43.522Z,18.00
2018-04-25T12:21:49.043Z,14.50
2018-04-25T12:22:53.132Z,18.50
2018-04-25T12:23:57.283Z,14.50
2018-04-25T12:25:01.376Z,16.00
2018-04-25T12:26:05.558Z,20.50
2018-04-25T12:27:09.654Z,12.50
2018-04-25T12:28:14.140Z,14.00
2018-04-25T12:29:18.275Z,13.00
2018-04-25T12:30:23.028Z,24.50
2018-04-25T12:31:27.260Z,18.00
2018-04-25T12:32:31.366Z,20.00
2018-04-25T12:33:35.491Z,18.50
2018-04-25T12:34:39.655Z,16.50
2018-04-25T12:35:43.835Z,24.00
2018-04-25T12:36:47.905Z,18.00
2018-04-25T12:37:52.113Z,12.50
2018-04-25T12:38:56.942Z,16.00
2018-04-25T12:40:01.051Z,16.00
2018-04-25T12:41:05.250Z,22.00
2018-04-25T12:42:09.347Z,20.00
2018-04-25T12:43:13.430Z,14.50
2018-04-25T12:44:17.623Z,14.00
2018-04-25T12:45:22.261Z,50.00
2018-04-25T12:46:26.480Z,20.50
2018-04-25T12:47:30.642Z,16.50
2018-04-25T12:48:34.728Z,24.50
2018-04-25T12:49:38.853Z,15.50
2018-04-25T12:50:42.999Z,18.50
2018-04-25T12:51:47.173Z,14.00
2018-04-25T12:52:51.412Z,20.00
2018-04-25T12:53:55.557Z,12.50
2018-04-25T12:55:00.656Z,20.50
2018-04-25T12:56:04.789Z,16.00
2018-04-25T12:57:08.975Z,14.50
2018-04-25T12:58:13.064Z,16.00
2018-04-25T12:59:17.285Z,18.50
2018-04-25T13:00:21.506Z,21.50
2018-04-25T13:01:25.986Z,22.50
2018-04-25T13:02:30.444Z,22.00
2018-04-25T13:03:34.642Z,23.50
2018-04-25T13:04:38.745Z,18.00
2018-04-25T13:05:43.773Z,21.00
2018-04-25T13:06:47.919Z,21.00
2018-04-25T13:07:52.501Z,12.00
2018-04-25T13:08:56.648Z,18.00
2018-04-25T13:10:00.748Z,26.00
2018-04-25T13:11:05.042Z,16.00
2018-04-25T13:12:09.211Z,18.00
2018-04-25T13:13:13.327Z,16.50
2018-04-25T13:14:17.980Z,23.00
2018-04-25T13:15:22.314Z,66.00
2018-04-25T13:16:26.721Z,25.00
2018-04-25T13:17:31.191Z,18.00
2018-04-25T13:18:35.311Z,18.00
2018-04-25T13:19:39.389Z,15.50
2018-04-25T13:20:43.826Z,24.00
2018-04-25T13:21:47.932Z,19.50
2018-04-25T13:22:52.138Z,22.00
2018-04-25T13:23:56.243Z,23.00
2018-04-25T13:25:00.399Z,20.00
2018-04-25T13:26:04.854Z,21.50
2018-04-25T13:27:08.972Z,22.50
2018-04-25T13:28:13.073Z,25.00
2018-04-25T13:29:17.351Z,20.00
2018-04-25T13:30:21.592Z,27.00
2018-04-25T13:31:26.047Z,20.50
2018-04-25T13:32:30.490Z,15.50
2018-04-25T13:33:35.305Z,18.00
2018-04-25T13:34:39.748Z,26.00
2018-04-25T13:35:43.915Z,23.00
2018-04-25T13:36:48.065Z,19.50
2018-04-25T13:37:52.301Z,22.00
2018-04-25T13:38:56.698Z,27.00
2018-04-25T13:40:00.816Z,26.00
2018-04-25T13:41:04.986Z,25.00
2018-04-25T13:42:09.236Z,27.00
2018-04-25T13:43:13.366Z,24.00
2018-04-25T13:44:17.505Z,26.50
2018-04-25T13:45:21.670Z,26.00
2018-04-25T13:46:26.047Z,24.50
2018-04-25T13:47:30.335Z,31.50
2018-04-25T13:48:34.955Z,29.50
2018-04-25T13:49:39.251Z,18.00
2018-04-25T13:50:43.464Z,20.50
2018-04-25T13:51:47.555Z,25.00
2018-04-25T13:52:52.545Z,15.00
2018-04-25T13:53:56.622Z,17.00
2018-04-25T13:55:00.834Z,17.50
2018-04-25T13:56:04.983Z,16.50